Time;durP1;ratioP1;P1;durP2;ratioP2;P2;SDS_P1;SDS_P2;PMS_P1;PMS_P2;Temp;Humidity;BMP_temperature;BMP_pressure;BME280_temperature;BME280_humidity;BME280_pressure;Samples;Min_cycle;Max_cycle;Signal;HPM_P1;HPM_P2
2021/12/07 00:02:01;;;;;;;20.52;18.33;;;3.00;99.90;;;;;;4969328;28;89118;-36
2021/12/07 00:04:27;;;;;;;19.73;17.52;;;2.90;99.90;;;;;;4968418;28;90550;-36
2021/12/07 00:06:53;;;;;;;22.83;19.50;;;2.90;99.90;;;;;;4967084;28;90139;-36
2021/12/07 00:09:19;;;;;;;27.02;20.33;;;2.90;99.90;;;;;;4967587;28;90916;-36
2021/12/07 00:11:47;;;;;;;22.65;19.75;;;2.80;99.90;;;;;;4967977;28;87289;-36
2021/12/07 00:14:14;;;;;;;26.42;19.50;;;2.80;99.90;;;;;;4968874;28;87911;-36
2021/12/07 00:16:44;;;;;;;28.55;20.88;;;2.80;99.90;;;;;;4967272;28;88225;-36
2021/12/07 00:19:11;;;;;;;19.73;17.63;;;2.70;99.90;;;;;;4967216;28;88791;-36
2021/12/07 00:21:38;;;;;;;22.08;17.83;;;2.70;99.90;;;;;;4968260;28;87771;-35
2021/12/07 00:24:05;;;;;;;21.98;19.60;;;2.70;99.90;;;;;;4967950;28;90171;-35
2021/12/07 00:26:30;;;;;;;20.70;18.35;;;2.60;99.90;;;;;;4968133;28;88994;-36
2021/12/07 00:28:58;;;;;;;20.70;18.50;;;2.60;99.90;;;;;;4968793;28;88694;-36
2021/12/07 00:31:30;;;;;;;21.97;18.83;;;2.60;99.90;;;;;;4968545;28;89115;-36
2021/12/07 00:36:31;;;;;;;21.08;17.83;;;2.40;99.90;;;;;;4967299;28;89940;-36
2021/12/07 00:38:56;;;;;;;23.85;18.58;;;2.40;99.90;;;;;;4968167;28;88299;-36
2021/12/07 00:41:22;;;;;;;19.45;17.38;;;2.30;99.90;;;;;;4968212;28;87921;-36
2021/12/07 00:43:47;;;;;;;23.92;18.35;;;2.20;99.90;;;;;;4967063;28;88821;-35
2021/12/07 00:46:13;;;;;;;21.45;18.88;;;2.20;99.90;;;;;;4967533;28;89644;-35
2021/12/07 00:48:38;;;;;;;21.25;18.65;;;2.10;99.90;;;;;;4967414;28;89093;-36
2021/12/07 00:51:04;;;;;;;22.30;19.77;;;2.00;99.90;;;;;;4968325;28;87868;-35
2021/12/07 00:53:30;;;;;;;23.15;18.85;;;2.00;99.90;;;;;;4967314;28;89048;-36
2021/12/07 00:55:59;;;;;;;24.77;19.73;;;2.00;99.90;;;;;;4968122;28;89507;-36
2021/12/07 00:58:27;;;;;;;21.10;18.90;;;1.90;99.90;;;;;;4967364;28;89576;-36
2021/12/07 01:00:57;;;;;;;20.80;18.60;;;1.90;99.90;;;;;;4967865;28;87269;-35
2021/12/07 01:03:24;;;;;;;22.67;18.80;;;1.80;99.90;;;;;;4967861;28;92206;-34
2021/12/07 01:05:53;;;;;;;22.98;19.60;;;1.80;99.90;;;;;;4967637;28;88027;-35
2021/12/07 01:24:43;;;;;;;26.10;18.38;;;1.60;99.90;;;;;;4987542;28;89258;-36
2021/12/07 01:27:12;;;;;;;20.33;18.20;;;1.60;99.90;;;;;;4986852;28;91730;-35
2021/12/07 01:29:39;;;;;;;;;;;1.60;99.90;;;;;;4986329;28;88223;-35
2021/12/07 01:37:27;;;;;;;20.00;16.88;;;1.60;99.90;;;;;;4987272;28;90106;-35
2021/12/07 01:47:55;;;;;;;20.60;17.00;;;1.50;99.90;;;;;;4986024;28;89562;-36
2021/12/07 01:50:45;;;;;;;20.77;16.65;;;1.50;99.90;;;;;;4986604;28;89064;-34
2021/12/07 02:01:28;;;;;;;18.70;16.30;;;1.50;99.90;;;;;;4987764;28;89320;-36
2021/12/07 02:03:54;;;;;;;16.92;14.77;;;1.50;99.90;;;;;;4985302;28;88267;-35
2021/12/07 02:06:19;;;;;;;18.77;15.05;;;1.50;99.90;;;;;;4990071;28;88218;-35
2021/12/07 02:08:45;;;;;;;18.80;16.83;;;1.50;99.90;;;;;;4990172;28;89010;-35
2021/12/07 02:11:11;;;;;;;18.13;16.15;;;1.50;99.90;;;;;;4984555;28;88681;-36
2021/12/07 02:16:03;;;;;;;15.73;13.93;;;1.50;99.90;;;;;;4969945;28;89932;-35
2021/12/07 02:18:28;;;;;;;18.05;15.38;;;1.50;99.90;;;;;;4970508;28;88626;-35
2021/12/07 02:20:54;;;;;;;16.15;14.27;;;1.50;99.90;;;;;;4985398;28;88648;-36
2021/12/07 02:23:20;;;;;;;21.70;16.45;;;1.50;99.90;;;;;;4970314;28;88311;-36
2021/12/07 02:25:46;;;;;;;17.45;15.68;;;1.50;99.90;;;;;;4985710;28;89667;-35
2021/12/07 02:28:16;;;;;;;19.45;16.63;;;1.50;99.90;;;;;;4985492;28;88926;-35
2021/12/07 02:30:43;;;;;;;19.55;15.88;;;1.50;99.90;;;;;;4985355;28;88471;-36
2021/12/07 02:33:10;;;;;;;18.38;16.63;;;1.50;99.90;;;;;;4970205;28;88239;-36
2021/12/07 02:35:37;;;;;;;21.27;17.00;;;1.40;99.90;;;;;;4970066;28;90241;-35
2021/12/07 02:38:03;;;;;;;23.33;18.38;;;1.40;99.90;;;;;;4969909;28;88820;-36
2021/12/07 02:40:29;;;;;;;20.95;17.83;;;1.40;99.90;;;;;;4969616;28;90010;-36
2021/12/07 02:42:54;;;;;;;20.00;17.10;;;1.40;99.90;;;;;;4986290;28;87562;-35
2021/12/07 02:45:22;;;;;;;19.35;16.88;;;1.50;99.90;;;;;;4968669;28;89804;-35
2021/12/07 02:47:47;;;;;;;19.13;16.70;;;1.50;99.90;;;;;;4985941;28;88942;-35
2021/12/07 02:50:14;;;;;;;22.15;16.70;;;1.50;99.90;;;;;;4986073;28;89065;-36
2021/12/07 02:52:40;;;;;;;17.77;15.75;;;1.50;99.90;;;;;;4969484;28;88260;-36
2021/12/07 02:55:07;;;;;;;18.90;16.48;;;1.50;99.90;;;;;;4985195;28;90179;-35
2021/12/07 02:57:34;;;;;;;19.75;16.90;;;1.50;99.90;;;;;;4969388;28;88519;-35
2021/12/07 03:00:08;;;;;;;17.48;15.68;;;1.50;99.90;;;;;;4969945;28;88982;-36
2021/12/07 03:02:40;;;;;;;19.73;16.88;;;1.50;99.90;;;;;;4969588;28;89442;-35
2021/12/07 03:05:18;;;;;;;18.63;16.65;;;1.50;99.90;;;;;;4969808;28;89296;-35
2021/12/07 03:26:39;;;;;;;20.30;18.17;;;1.50;99.90;;;;;;4968897;28;89360;-35
2021/12/07 03:29:04;;;;;;;19.92;17.90;;;1.50;99.90;;;;;;4969484;28;89412;-35
2021/12/07 03:31:30;;;;;;;19.05;17.10;;;1.50;99.90;;;;;;4969080;28;89400;-37
2021/12/07 03:33:58;;;;;;;21.90;19.00;;;1.60;99.90;;;;;;4969406;28;88411;-35
2021/12/07 03:36:24;;;;;;;23.67;18.90;;;1.60;99.90;;;;;;4985729;28;89760;-35
2021/12/07 03:38:50;;;;;;;24.23;20.55;;;1.60;99.90;;;;;;4984914;28;88948;-35
2021/12/07 03:41:16;;;;;;;25.42;20.17;;;1.60;99.90;;;;;;4968947;28;88562;-35
2021/12/07 03:43:42;;;;;;;22.83;19.42;;;1.60;99.90;;;;;;4985655;28;88351;-35
2021/12/07 03:46:08;;;;;;;22.08;19.15;;;1.50;99.90;;;;;;4969212;28;89348;-36
2021/12/07 03:48:35;;;;;;;25.05;21.58;;;1.60;99.90;;;;;;4969549;28;88299;-37
2021/12/07 03:51:02;;;;;;;22.83;19.77;;;1.60;99.90;;;;;;4984709;28;88694;-35
2021/12/07 03:53:30;;;;;;;23.40;18.70;;;1.50;99.90;;;;;;4967550;28;89480;-36
2021/12/07 03:55:57;;;;;;;23.25;20.55;;;1.50;99.90;;;;;;4968595;28;89016;-35
2021/12/07 03:58:23;;;;;;;21.52;18.92;;;1.50;99.90;;;;;;4985232;28;89603;-35
2021/12/07 04:00:49;;;;;;;23.63;19.77;;;1.50;99.90;;;;;;4968702;28;89150;-35
2021/12/07 04:03:17;;;;;;;26.17;20.65;;;1.60;99.90;;;;;;4968327;28;87422;-35
2021/12/07 04:05:45;;;;;;;25.05;20.25;;;1.60;99.90;;;;;;4984018;28;89776;-36
2021/12/07 04:08:17;;;;;;;26.48;21.45;;;1.60;99.90;;;;;;4984702;28;89060;-35
2021/12/07 04:10:43;;;;;;;25.63;21.73;;;1.60;99.90;;;;;;4984653;28;88418;-35
2021/12/07 04:13:10;;;;;;;23.75;19.60;;;1.60;99.90;;;;;;4969089;28;88050;-35
2021/12/07 04:15:36;;;;;;;24.35;20.63;;;1.60;99.90;;;;;;4968345;28;89922;-35
2021/12/07 04:18:03;;;;;;;27.90;22.30;;;1.60;99.90;;;;;;4967487;28;89678;-35
2021/12/07 04:20:29;;;;;;;24.55;20.52;;;1.60;99.90;;;;;;4968160;28;89572;-35
2021/12/07 04:22:54;;;;;;;27.65;21.48;;;1.60;99.90;;;;;;4968813;28;87722;-35
2021/12/07 04:25:23;;;;;;;30.13;23.80;;;1.50;99.90;;;;;;4984266;28;89324;-35
2021/12/07 04:27:51;;;;;;;23.90;21.27;;;1.50;99.90;;;;;;4968072;28;88843;-35
2021/12/07 04:30:23;;;;;;;27.92;20.85;;;1.50;99.90;;;;;;4984192;28;88913;-34
2021/12/07 04:32:49;;;;;;;29.98;21.55;;;1.50;99.90;;;;;;4968331;28;89225;-35
2021/12/07 04:35:15;;;;;;;26.95;21.58;;;1.50;99.90;;;;;;4968605;28;89938;-35
2021/12/07 04:37:41;;;;;;;26.25;22.10;;;1.50;99.90;;;;;;4968052;28;88734;-34
2021/12/07 04:40:10;;;;;;;28.70;22.13;;;1.50;99.90;;;;;;4967740;28;88474;-36
2021/12/07 04:42:36;;;;;;;25.67;21.92;;;1.50;99.90;;;;;;4967572;28;88398;-36
2021/12/07 04:45:06;;;;;;;29.85;23.50;;;1.50;99.90;;;;;;4967322;28;89832;-35
2021/12/07 04:48:06;;;;;;;23.63;21.13;;;1.50;99.90;;;;;;4983685;28;88910;-36
2021/12/07 04:58:20;;;;;;;26.15;21.77;;;1.30;99.90;;;;;;4968311;28;88720;-35
2021/12/07 05:00:45;;;;;;;26.55;20.88;;;1.40;99.90;;;;;;4972652;28;88362;-35
2021/12/07 05:03:14;;;;;;;31.67;21.73;;;1.40;99.90;;;;;;4985318;28;87496;-35
2021/12/07 05:05:46;;;;;;;25.77;21.67;;;1.40;99.90;;;;;;4984445;28;89531;-35
2021/12/07 05:08:15;;;;;;;25.08;20.33;;;1.40;99.90;;;;;;4984713;28;88358;-34
2021/12/07 05:11:22;;;;;;;27.38;20.25;;;1.40;99.90;;;;;;4967541;28;91493;-34
2021/12/07 05:13:51;;;;;;;22.52;19.05;;;1.40;99.90;;;;;;4983411;28;86725;-35
2021/12/07 05:16:33;;;;;;;25.40;19.50;;;1.40;99.90;;;;;;4969001;28;89683;-35
2021/12/07 05:24:48;;;;;;;21.70;18.50;;;1.30;99.90;;;;;;4986743;28;88996;-35
2021/12/07 05:38:11;;;;;;;24.48;17.90;;;1.30;99.90;;;;;;4970888;28;89242;-35
2021/12/07 05:40:36;;;;;;;20.10;17.17;;;1.30;99.90;;;;;;4989775;28;89086;-35
2021/12/07 05:43:03;;;;;;;29.40;20.08;;;1.30;99.90;;;;;;4991561;28;87191;-35
2021/12/07 05:45:33;;;;;;;20.02;16.85;;;1.30;99.90;;;;;;4990631;28;87853;-35
2021/12/07 05:48:01;;;;;;;24.05;17.73;;;1.30;99.90;;;;;;4991152;28;89024;-36
2021/12/07 05:50:29;;;;;;;24.37;18.50;;;1.30;99.90;;;;;;4983633;28;87633;-34
2021/12/07 05:52:54;;;;;;;26.73;20.08;;;1.30;99.90;;;;;;4984678;28;87969;-36
2021/12/07 05:55:20;;;;;;;21.95;19.33;;;1.30;99.90;;;;;;4987607;28;89076;-35
2021/12/07 05:57:46;;;;;;;24.05;18.10;;;1.30;99.90;;;;;;4986845;28;89098;-35
2021/12/07 06:00:23;;;;;;;23.77;19.90;;;1.30;99.90;;;;;;4998404;28;90539;-33
2021/12/07 06:02:49;;;;;;;22.55;18.25;;;1.30;99.90;;;;;;4971789;28;89403;-35
2021/12/07 06:05:15;;;;;;;20.17;18.00;;;1.30;99.90;;;;;;4973194;28;88316;-36
2021/12/07 06:07:41;;;;;;;24.23;18.70;;;1.20;99.90;;;;;;4992997;28;90963;-35
2021/12/07 06:10:07;;;;;;;27.33;18.33;;;1.20;99.90;;;;;;4986188;28;87298;-34
2021/12/07 06:12:33;;;;;;;21.45;17.88;;;1.20;99.90;;;;;;4987946;28;88794;-35
2021/12/07 06:14:58;;;;;;;20.48;17.15;;;1.20;99.90;;;;;;4984114;28;88214;-34
2021/12/07 06:17:24;;;;;;;24.88;18.35;;;1.20;99.90;;;;;;4999417;28;89392;-33
2021/12/07 06:19:50;;;;;;;24.23;17.83;;;1.10;99.90;;;;;;4987032;28;88616;-32
2021/12/07 06:22:16;;;;;;;20.45;17.27;;;1.20;99.90;;;;;;4993293;28;88959;-35
2021/12/07 06:24:41;;;;;;;21.55;16.33;;;1.10;99.90;;;;;;4986366;28;89085;-35
2021/12/07 06:27:07;;;;;;;22.63;17.75;;;1.20;99.90;;;;;;4976122;28;88639;-35
2021/12/07 06:29:33;;;;;;;22.17;18.00;;;1.20;99.90;;;;;;4990874;28;88542;-35
2021/12/07 06:31:58;;;;;;;22.92;17.67;;;1.30;99.90;;;;;;4987652;28;88601;-35
2021/12/07 06:34:24;;;;;;;20.50;18.10;;;1.30;99.90;;;;;;4985036;28;87961;-36
2021/12/07 06:36:50;;;;;;;22.30;18.38;;;1.30;99.90;;;;;;4969724;28;88961;-35
2021/12/07 06:39:16;;;;;;;25.13;17.95;;;1.30;99.90;;;;;;4968584;28;90380;-34
2021/12/07 06:41:41;;;;;;;24.90;16.95;;;1.30;99.90;;;;;;4985320;28;88682;-35
2021/12/07 06:44:07;;;;;;;21.80;16.17;;;1.30;99.90;;;;;;4986291;28;88470;-35
2021/12/07 06:46:33;;;;;;;19.05;16.85;;;1.30;99.90;;;;;;4986498;28;90890;-35
2021/12/07 06:48:58;;;;;;;20.70;16.20;;;1.30;99.90;;;;;;4986500;28;89405;-35
2021/12/07 06:51:24;;;;;;;24.73;19.05;;;1.40;99.90;;;;;;4985205;28;91153;-35
2021/12/07 06:53:50;;;;;;;20.77;17.40;;;1.40;99.90;;;;;;4971204;28;88513;-35
2021/12/07 06:56:15;;;;;;;25.48;19.05;;;1.40;99.90;;;;;;4986294;28;89294;-35
2021/12/07 06:58:41;;;;;;;26.33;18.17;;;1.40;99.90;;;;;;4986596;28;89937;-35
2021/12/07 07:01:10;;;;;;;18.52;15.75;;;1.50;99.90;;;;;;4970536;28;88594;-35
2021/12/07 07:03:36;;;;;;;24.48;18.33;;;1.50;99.90;;;;;;4970556;28;87756;-36
2021/12/07 07:06:03;;;;;;;24.20;17.05;;;1.50;99.90;;;;;;4971383;28;89668;-35
2021/12/07 07:08:28;;;;;;;24.23;15.90;;;1.50;99.90;;;;;;4954122;28;88267;-34
2021/12/07 07:10:54;;;;;;;23.42;17.70;;;1.50;99.90;;;;;;4969610;28;87767;-35
2021/12/07 07:13:20;;;;;;;22.50;17.60;;;1.50;99.90;;;;;;4970847;28;88986;-35
2021/12/07 07:15:46;;;;;;;25.08;17.92;;;1.50;99.90;;;;;;4970674;28;87808;-35
2021/12/07 07:18:11;;;;;;;24.52;17.35;;;1.50;99.90;;;;;;4986378;28;88718;-35
2021/12/07 07:20:37;;;;;;;22.17;16.38;;;1.50;99.90;;;;;;4969973;28;89209;-35
2021/12/07 07:23:03;;;;;;;22.50;16.38;;;1.50;99.90;;;;;;4970572;28;87533;-34
2021/12/07 07:25:29;;;;;;;25.15;16.90;;;1.40;99.90;;;;;;4969996;28;89150;-34
2021/12/07 07:27:55;;;;;;;23.13;17.55;;;1.40;99.90;;;;;;4969984;28;88563;-35
2021/12/07 07:30:21;;;;;;;19.13;15.93;;;1.40;99.90;;;;;;4969774;28;89740;-36
2021/12/07 07:32:47;;;;;;;24.83;17.15;;;1.40;99.90;;;;;;4986187;28;87830;-32
2021/12/07 07:35:14;;;;;;;18.58;16.13;;;1.40;99.90;;;;;;4991546;28;89128;-35
2021/12/07 07:37:40;;;;;;;20.33;15.70;;;1.40;99.90;;;;;;4990217;28;89390;-36
2021/12/07 07:40:12;;;;;;;27.02;17.40;;;1.40;99.90;;;;;;4988913;28;89370;-35
2021/12/07 07:42:37;;;;;;;25.95;16.13;;;1.40;99.90;;;;;;4989378;28;89258;-34
2021/12/07 07:45:04;;;;;;;20.40;15.98;;;1.40;99.90;;;;;;4988021;28;89190;-35
2021/12/07 07:47:30;;;;;;;22.63;16.33;;;1.40;99.90;;;;;;4987738;28;88843;-37
2021/12/07 07:49:55;;;;;;;27.58;16.13;;;1.40;99.90;;;;;;4986820;28;90051;-34
2021/12/07 07:52:21;;;;;;;23.73;17.55;;;1.50;99.90;;;;;;4988894;28;87191;-35
2021/12/07 07:54:46;;;;;;;21.90;17.15;;;1.40;99.90;;;;;;4987632;28;89020;-33
2021/12/07 07:57:12;;;;;;;24.58;17.95;;;1.40;99.90;;;;;;4988284;28;88518;-35
2021/12/07 07:59:40;;;;;;;21.10;17.23;;;1.40;99.90;;;;;;4987653;28;88030;-35
2021/12/07 08:02:06;;;;;;;26.35;17.17;;;1.40;99.90;;;;;;4985795;28;89638;-35
2021/12/07 08:04:32;;;;;;;20.65;15.65;;;1.40;99.90;;;;;;4987563;28;89115;-36
2021/12/07 08:06:59;;;;;;;24.88;15.65;;;1.40;99.90;;;;;;4987807;28;88777;-35
2021/12/07 08:09:25;;;;;;;23.63;17.05;;;1.40;99.90;;;;;;4988278;28;88551;-35
2021/12/07 08:11:50;;;;;;;23.25;16.80;;;1.40;99.90;;;;;;4987285;28;88275;-35
2021/12/07 08:14:17;;;;;;;29.48;15.98;;;1.40;99.90;;;;;;4988376;28;87848;-35
2021/12/07 08:16:43;;;;;;;23.67;16.17;;;1.40;99.90;;;;;;4987637;28;87350;-35
2021/12/07 08:19:09;;;;;;;19.65;14.98;;;1.40;99.90;;;;;;4987627;28;88289;-35
2021/12/07 08:21:35;;;;;;;21.10;15.13;;;1.40;99.90;;;;;;4986447;28;89520;-35
2021/12/07 08:24:01;;;;;;;22.30;15.30;;;1.40;99.90;;;;;;4987923;28;88132;-35
2021/12/07 08:26:27;;;;;;;27.02;15.85;;;1.40;99.90;;;;;;4985144;28;90976;-35
2021/12/07 08:28:55;;;;;;;23.50;16.55;;;1.40;99.90;;;;;;4987984;28;89970;-35
2021/12/07 08:31:21;;;;;;;21.13;16.23;;;1.40;99.90;;;;;;4987567;28;87387;-34
2021/12/07 08:33:47;;;;;;;21.88;16.65;;;1.50;99.90;;;;;;4986651;28;89066;-35
2021/12/07 08:36:14;;;;;;;24.92;16.23;;;1.50;99.90;;;;;;4987829;28;89152;-35
2021/12/07 08:38:39;;;;;;;22.30;17.23;;;1.60;99.90;;;;;;4987674;28;88142;-35
2021/12/07 08:41:05;;;;;;;29.27;17.10;;;1.60;99.90;;;;;;4987151;28;86954;-35
2021/12/07 08:43:34;;;;;;;25.83;14.95;;;1.60;99.90;;;;;;4986672;28;89231;-36
2021/12/07 08:46:01;;;;;;;27.55;17.08;;;1.70;99.90;;;;;;4986669;28;88517;-35
2021/12/07 08:48:28;;;;;;;24.83;18.13;;;1.80;99.90;;;;;;4987167;28;88403;-35
2021/12/07 08:50:54;;;;;;;20.83;16.80;;;1.80;99.90;;;;;;4986993;28;88168;-35
2021/12/07 08:53:21;;;;;;;27.08;15.60;;;1.90;99.90;;;;;;4987588;28;89155;-35
2021/12/07 09:01:20;;;;;;;19.20;14.85;;;2.00;99.90;;;;;;4987022;28;86941;-35
2021/12/07 09:03:47;;;;;;;19.65;16.27;;;2.10;99.90;;;;;;4987090;28;89330;-35
2021/12/07 09:06:14;;;;;;;20.10;14.32;;;2.20;99.90;;;;;;4985701;28;88190;-34
2021/12/07 09:08:40;;;;;;;19.88;15.20;;;2.30;99.90;;;;;;4987405;28;88514;-35
2021/12/07 09:11:06;;;;;;;22.50;15.23;;;2.50;99.90;;;;;;4986228;28;88221;-34
2021/12/07 09:13:34;;;;;;;18.13;13.18;;;2.60;99.90;;;;;;5003102;28;89299;-35
2021/12/07 09:15:59;;;;;;;22.05;15.57;;;2.80;99.90;;;;;;4989262;28;89420;-35
2021/12/07 09:18:26;;;;;;;23.95;15.35;;;3.00;99.90;;;;;;4990101;28;89017;-35
2021/12/07 09:20:52;;;;;;;19.80;14.63;;;3.20;99.90;;;;;;4989362;28;88200;-35
2021/12/07 09:23:18;;;;;;;26.35;15.18;;;3.30;99.90;;;;;;4990150;28;89341;-34
2021/12/07 09:25:44;;;;;;;23.58;14.00;;;3.50;99.90;;;;;;4990083;28;88948;-36
2021/12/07 09:28:11;;;;;;;19.20;13.18;;;3.60;99.90;;;;;;4990631;28;88898;-36
2021/12/07 09:30:36;;;;;;;17.67;12.68;;;3.40;99.90;;;;;;4989993;28;87505;-35
2021/12/07 09:33:03;;;;;;;21.70;12.77;;;3.40;99.90;;;;;;4957595;28;89221;-36
2021/12/07 09:35:29;;;;;;;20.98;14.55;;;3.30;99.90;;;;;;4990654;28;89274;-35
2021/12/07 09:37:55;;;;;;;21.00;13.40;;;3.30;99.90;;;;;;4990087;28;90017;-35
2021/12/07 09:40:24;;;;;;;23.98;14.15;;;3.30;99.90;;;;;;4989737;28;88178;-35
2021/12/07 09:42:51;;;;;;;22.88;14.30;;;3.40;99.90;;;;;;5005559;28;89719;-36
2021/12/07 09:45:17;;;;;;;19.75;14.85;;;3.40;99.90;;;;;;4989309;28;90363;-35
2021/12/07 09:47:44;;;;;;;15.55;12.48;;;3.40;99.90;;;;;;4990234;28;89250;-35
2021/12/07 09:50:13;;;;;;;18.77;13.30;;;3.30;99.90;;;;;;5005744;28;87113;-36
2021/12/07 09:52:39;;;;;;;20.50;13.55;;;3.40;99.90;;;;;;4972024;28;88802;-36
2021/12/07 09:55:05;;;;;;;20.20;14.50;;;3.40;99.90;;;;;;4990100;28;88647;-34
2021/12/07 09:57:31;;;;;;;23.60;15.00;;;3.30;99.90;;;;;;4989271;28;90470;-37
2021/12/07 09:59:57;;;;;;;18.67;14.80;;;3.30;99.90;;;;;;4990291;28;88397;-35
2021/12/07 10:02:22;;;;;;;18.98;12.88;;;3.40;99.90;;;;;;4988671;28;89076;-35
2021/12/07 10:04:48;;;;;;;21.10;13.90;;;3.40;99.90;;;;;;4987852;28;89274;-36
2021/12/07 10:07:14;;;;;;;22.65;14.27;;;3.50;99.90;;;;;;4990111;28;89631;-35
2021/12/07 10:09:40;;;;;;;23.17;13.77;;;3.50;99.90;;;;;;4989352;28;88698;-36
2021/12/07 10:12:07;;;;;;;26.48;14.77;;;3.50;99.90;;;;;;4989969;28;88980;-36
2021/12/07 10:14:38;;;;;;;22.52;14.05;;;3.50;99.90;;;;;;5005122;28;89967;-35
2021/12/07 10:17:04;;;;;;;19.55;13.70;;;3.50;99.90;;;;;;4989138;28;89657;-35
2021/12/07 10:19:35;;;;;;;19.80;13.10;;;3.50;99.90;;;;;;4989240;28;88632;-35
2021/12/07 10:22:16;;;;;;;24.20;12.73;;;3.50;99.90;;;;;;4989507;28;89611;-35
2021/12/07 10:24:54;;;;;;;19.80;13.82;;;3.50;99.90;;;;;;4988827;28;88687;-35
2021/12/07 10:27:35;;;;;;;22.27;11.82;;;3.50;99.90;;;;;;4988640;28;88623;-36
2021/12/07 10:30:08;;;;;;;21.00;11.50;;;3.50;99.90;;;;;;4987831;28;88215;-36
2021/12/07 10:32:38;;;;;;;21.20;12.23;;;3.50;99.90;;;;;;4988759;28;90847;-35
2021/12/07 10:35:05;;;;;;;16.92;12.82;;;3.60;99.90;;;;;;4989727;28;88744;-36
2021/12/07 10:37:31;;;;;;;23.30;11.93;;;3.60;99.90;;;;;;4989734;28;89238;-36
2021/12/07 10:39:57;;;;;;;19.70;12.82;;;3.70;99.90;;;;;;4989290;28;87805;-35
2021/12/07 10:42:29;;;;;;;20.27;12.98;;;3.80;99.90;;;;;;4987770;28;89579;-35
2021/12/07 10:44:58;;;;;;;18.45;11.23;;;3.80;99.90;;;;;;4989952;28;89395;-35
2021/12/07 10:47:24;;;;;;;19.00;11.85;;;3.90;99.90;;;;;;4989757;28;89127;-36
2021/12/07 10:50:01;;;;;;;13.02;10.65;;;4.00;99.90;;;;;;4988832;28;88738;-35
2021/12/07 10:52:33;;;;;;;15.10;11.10;;;4.10;99.90;;;;;;4989012;28;89099;-35
2021/12/07 10:55:18;;;;;;;15.68;10.30;;;4.20;99.90;;;;;;4988661;28;89689;-36
2021/12/07 10:57:44;;;;;;;17.42;10.85;;;4.30;99.90;;;;;;4989243;28;90272;-35
2021/12/07 11:00:16;;;;;;;21.45;11.20;;;4.40;99.90;;;;;;4987952;28;89196;-33
2021/12/07 11:02:46;;;;;;;18.15;10.55;;;4.40;99.90;;;;;;4988273;28;90198;-35
2021/12/07 11:05:36;;;;;;;13.75;9.90;;;4.50;99.90;;;;;;4988149;28;90306;-35
2021/12/07 11:08:05;;;;;;;15.10;9.52;;;4.60;99.90;;;;;;4971777;28;88704;-35
2021/12/07 11:10:34;;;;;;;25.67;10.60;;;4.70;99.90;;;;;;4990097;28;87017;-36
2021/12/07 11:15:34;;;;;;;15.38;10.95;;;4.80;99.90;;;;;;4988829;28;88757;-37
2021/12/07 11:18:11;;;;;;;24.33;11.27;;;4.90;99.90;;;;;;4988593;28;88591;-36
2021/12/07 11:20:38;;;;;;;13.70;8.95;;;5.00;99.90;;;;;;4986606;28;89268;-35
2021/12/07 11:23:13;;;;;;;16.20;8.25;;;5.10;99.90;;;;;;4988889;28;87959;-35
2021/12/07 11:31:51;;;;;;;18.98;9.40;;;5.20;99.90;;;;;;4987980;28;87072;-35
2021/12/07 11:34:20;;;;;;;17.80;9.13;;;5.30;99.90;;;;;;4988333;28;89354;-35
2021/12/07 11:36:54;;;;;;;16.40;9.88;;;5.30;99.90;;;;;;4988472;28;88714;-35
2021/12/07 11:39:26;;;;;;;11.90;9.38;;;5.30;99.90;;;;;;4989645;28;89011;-36
2021/12/07 11:42:05;;;;;;;12.50;9.73;;;5.40;99.90;;;;;;4988767;28;88426;-36
2021/12/07 11:44:34;;;;;;;17.80;9.15;;;5.50;99.90;;;;;;4988828;28;87813;-36
2021/12/07 11:47:01;;;;;;;13.13;9.30;;;5.50;99.90;;;;;;4988295;28;89812;-36
2021/12/07 11:49:30;;;;;;;17.70;8.85;;;5.60;99.90;;;;;;4988350;28;90404;-35
2021/12/07 11:51:59;;;;;;;15.70;8.13;;;5.60;99.90;;;;;;4988791;28;88949;-36
2021/12/07 11:54:31;;;;;;;21.23;10.15;;;5.70;99.90;;;;;;4988531;28;90922;-36
2021/12/07 11:56:58;;;;;;;19.45;10.13;;;5.70;99.90;;;;;;4988240;28;88603;-36
2021/12/07 11:59:24;;;;;;;14.57;10.07;;;5.80;99.90;;;;;;4988735;28;87888;-36
2021/12/07 12:01:52;;;;;;;21.33;10.05;;;5.80;99.90;;;;;;4987639;28;88360;-36
2021/12/07 12:04:19;;;;;;;19.35;10.85;;;5.80;99.90;;;;;;4987943;28;89274;-36
2021/12/07 12:06:50;;;;;;;12.98;9.43;;;5.90;99.90;;;;;;5003788;28;88361;-35
2021/12/07 12:09:16;;;;;;;19.10;10.73;;;5.90;99.90;;;;;;4989058;28;88588;-36
2021/12/07 12:11:59;;;;;;;22.10;9.45;;;6.00;99.90;;;;;;4987584;28;87878;-36
2021/12/07 12:14:39;;;;;;;19.35;10.75;;;6.00;99.90;;;;;;4989307;28;89239;-36
2021/12/07 12:17:22;;;;;;;20.35;10.27;;;6.00;99.90;;;;;;4988579;28;88738;-36
2021/12/07 12:20:42;;;;;;;15.20;9.55;;;6.00;99.90;;;;;;4986610;28;88768;-36
2021/12/07 12:23:17;;;;;;;23.90;10.40;;;6.00;99.90;;;;;;4933447;28;87711;-36
2021/12/07 12:25:42;;;;;;;16.33;10.30;;;6.00;99.90;;;;;;4977783;28;89599;-35
2021/12/07 12:28:08;;;;;;;23.92;10.27;;;5.90;99.90;;;;;;4988738;28;89028;-37
2021/12/07 12:30:39;;;;;;;16.58;10.15;;;5.90;99.90;;;;;;4988327;28;87564;-36
2021/12/07 12:33:08;;;;;;;16.83;9.82;;;5.80;99.90;;;;;;4988636;28;87645;-36
2021/12/07 12:35:40;;;;;;;20.27;11.23;;;5.80;99.90;;;;;;4988072;28;89665;-37
2021/12/07 12:38:25;;;;;;;20.45;11.73;;;5.70;99.90;;;;;;4988315;28;89515;-36
2021/12/07 12:41:06;;;;;;;26.92;11.35;;;5.70;99.90;;;;;;4990732;28;87840;-36
2021/12/07 12:43:57;;;;;;;17.48;11.00;;;5.70;99.90;;;;;;4988970;28;88129;-37
2021/12/07 12:46:29;;;;;;;21.83;10.45;;;5.70;99.90;;;;;;4982844;28;88885;-36
2021/12/07 12:48:58;;;;;;;17.13;9.40;;;5.70;99.90;;;;;;4991539;28;88389;-36
2021/12/07 12:51:28;;;;;;;13.02;9.80;;;5.60;99.90;;;;;;4992587;28;90348;-36
2021/12/07 12:53:54;;;;;;;24.48;11.23;;;5.60;99.90;;;;;;4990427;28;86639;-36
2021/12/07 12:56:23;;;;;;;22.92;10.57;;;5.60;99.90;;;;;;4991637;28;89629;-35
2021/12/07 12:58:54;;;;;;;16.73;9.65;;;5.70;99.90;;;;;;4988490;28;88965;-35
2021/12/07 13:01:23;;;;;;;18.88;10.32;;;5.60;99.90;;;;;;4987062;28;88633;-36
2021/12/07 13:03:54;;;;;;;17.05;11.40;;;5.60;99.90;;;;;;4986500;28;89123;-35
2021/12/07 13:06:32;;;;;;;19.52;11.07;;;5.50;99.90;;;;;;4987983;28;89240;-36
2021/12/07 13:09:25;;;;;;;20.83;11.27;;;5.40;99.90;;;;;;4987662;28;89237;-36
2021/12/07 13:11:52;;;;;;;21.30;12.55;;;5.50;99.90;;;;;;4974022;28;88685;-35
2021/12/07 13:14:24;;;;;;;14.35;11.90;;;5.50;99.90;;;;;;4987034;28;88257;-36
2021/12/07 13:17:18;;;;;;;22.25;12.23;;;5.40;99.90;;;;;;4986375;28;89467;-36
2021/12/07 13:22:43;;;;;;;10.70;9.65;;;5.40;99.90;;;;;;4985002;28;87748;-36
2021/12/07 13:25:24;;;;;;;18.55;11.55;;;5.40;99.90;;;;;;4988387;28;87375;-37
2021/12/07 13:28:11;;;;;;;20.50;10.20;;;5.40;99.90;;;;;;4987100;28;89730;-36
2021/12/07 13:30:48;;;;;;;13.95;10.95;;;5.40;99.90;;;;;;4986777;28;89230;-35
2021/12/07 13:33:18;;;;;;;17.30;10.63;;;5.30;99.90;;;;;;4986014;28;89523;-36
2021/12/07 13:35:47;;;;;;;20.02;11.93;;;5.30;99.90;;;;;;4985962;28;87456;-37
2021/12/07 13:38:22;;;;;;;21.30;11.70;;;5.40;99.90;;;;;;4986804;28;88926;-36
2021/12/07 13:40:50;;;;;;;13.52;10.35;;;5.30;99.90;;;;;;5002472;28;89804;-36
2021/12/07 13:43:36;;;;;;;20.88;11.80;;;5.40;99.90;;;;;;4986880;28;88570;-36
2021/12/07 13:46:21;;;;;;;16.83;11.05;;;5.40;99.90;;;;;;4986795;28;88328;-36
2021/12/07 13:48:51;;;;;;;22.80;11.48;;;5.30;99.90;;;;;;5002488;28;89549;-36
2021/12/07 13:51:19;;;;;;;21.48;12.48;;;5.20;99.90;;;;;;5002664;28;88559;-37
2021/12/07 13:53:46;;;;;;;25.77;12.55;;;5.20;99.90;;;;;;4985623;28;88491;-36
2021/12/07 13:56:12;;;;;;;15.75;11.38;;;5.20;99.90;;;;;;4986826;28;88910;-36
2021/12/07 13:58:55;;;;;;;17.67;12.65;;;5.20;99.90;;;;;;4986742;28;89157;-35
2021/12/07 14:01:25;;;;;;;16.05;10.50;;;5.10;99.90;;;;;;4988524;28;89185;-37
2021/12/07 14:03:51;;;;;;;25.58;12.02;;;5.10;99.90;;;;;;4989612;28;88381;-36
2021/12/07 14:06:17;;;;;;;16.20;11.25;;;5.10;99.90;;;;;;4990498;28;88401;-36
2021/12/07 14:08:43;;;;;;;17.73;11.75;;;5.10;99.90;;;;;;4989717;28;89118;-36
2021/12/07 14:11:13;;;;;;;19.42;12.20;;;5.00;99.90;;;;;;4985245;28;88686;-34
2021/12/07 14:13:47;;;;;;;18.08;12.13;;;5.00;99.90;;;;;;4993238;28;88786;-36
2021/12/07 14:16:16;;;;;;;21.80;12.88;;;5.00;99.90;;;;;;4969414;28;86759;-36
2021/12/07 14:18:44;;;;;;;21.23;13.77;;;5.00;99.90;;;;;;4969021;28;89121;-36
2021/12/07 14:21:10;;;;;;;21.60;14.55;;;5.00;99.90;;;;;;4967946;28;89732;-36
2021/12/07 14:23:45;;;;;;;21.77;14.88;;;4.90;99.90;;;;;;4969045;28;89414;-35
2021/12/07 14:26:21;;;;;;;24.10;13.30;;;4.90;99.90;;;;;;4969262;28;88331;-36
2021/12/07 14:29:02;;;;;;;17.23;12.52;;;4.80;99.90;;;;;;4969283;28;89210;-36
2021/12/07 14:31:37;;;;;;;23.75;14.40;;;4.80;99.90;;;;;;4984909;28;89085;-35